Time;durP1;ratioP1;P1;durP2;ratioP2;P2;SDS_P1;SDS_P2;PMS_P1;PMS_P2;Temp;Humidity;BMP_temperature;BMP_pressure;BME280_temperature;BME280_humidity;BME280_pressure;Samples;Min_cycle;Max_cycle;Signal;HPM_P1;HPM_P2
2022/01/13 00:01:41;;;;;;;93.80;33.40;;;;;;;;;;5019144;28;20208;-60
2022/01/13 00:04:08;;;;;;;95.10;33.60;;;;;;;;;;5012481;28;20223;-60
2022/01/13 00:06:34;;;;;;;90.13;33.17;;;;;;;;;;4995368;28;20212;-60
2022/01/13 00:08:59;;;;;;;85.47;33.20;;;;;;;;;;4995467;28;20259;-60
2022/01/13 00:11:24;;;;;;;88.27;31.40;;;;;;;;;;4994927;28;21018;-60
2022/01/13 00:14:06;;;;;;;78.80;30.57;;;;;;;;;;5012179;28;20213;-60
2022/01/13 00:19:20;;;;;;;72.73;30.20;;;;;;;;;;4995874;28;20259;-60
2022/01/13 00:21:52;;;;;;;75.70;30.67;;;;;;;;;;4995856;28;20686;-60
2022/01/13 00:24:17;;;;;;;96.33;33.40;;;;;;;;;;5032245;28;20211;-60
2022/01/13 00:26:43;;;;;;;79.50;30.57;;;;;;;;;;5014439;28;20337;-60
2022/01/13 00:29:09;;;;;;;79.03;31.00;;;;;;;;;;5013572;28;20303;-60
2022/01/13 00:31:36;;;;;;;75.80;30.37;;;;;;;;;;5014739;28;20609;-60
2022/01/13 00:34:04;;;;;;;80.10;32.03;;;;;;;;;;5031922;28;20208;-60
2022/01/13 00:36:30;;;;;;;77.17;31.40;;;;;;;;;;5031703;28;20219;-60
2022/01/13 00:38:55;;;;;;;92.03;34.17;;;;;;;;;;5032365;28;20212;-60
2022/01/13 00:41:21;;;;;;;87.10;34.20;;;;;;;;;;5031751;28;20215;-60
2022/01/13 00:43:47;;;;;;;81.37;32.57;;;;;;;;;;5031709;28;20570;-60
2022/01/13 00:46:19;;;;;;;92.13;33.57;;;;;;;;;;5046040;28;20230;-60
2022/01/13 00:48:45;;;;;;;84.17;33.53;;;;;;;;;;5050420;28;20203;-60
2022/01/13 00:51:10;;;;;;;87.27;32.03;;;;;;;;;;5051497;28;20227;-60
2022/01/13 00:53:35;;;;;;;72.53;30.20;;;;;;;;;;5052315;28;20674;-60
2022/01/13 00:56:00;;;;;;;77.73;30.20;;;;;;;;;;5050795;28;20290;-60
2022/01/13 00:58:27;;;;;;;72.53;30.10;;;;;;;;;;5052012;28;20211;-60
2022/01/13 01:00:52;;;;;;;69.40;29.10;;;;;;;;;;5042610;28;20273;-60
2022/01/13 01:03:17;;;;;;;76.57;29.17;;;;;;;;;;5031273;28;20223;-60
2022/01/13 01:05:43;;;;;;;73.63;29.60;;;;;;;;;;5031950;28;20211;-60
2022/01/13 01:08:09;;;;;;;76.40;29.30;;;;;;;;;;5031703;28;20214;-60
2022/01/13 01:10:34;;;;;;;77.97;29.23;;;;;;;;;;5031159;28;20270;-60
2022/01/13 01:13:09;;;;;;;100.60;32.20;;;;;;;;;;5032087;28;20212;-60
2022/01/13 01:15:34;;;;;;;73.43;28.80;;;;;;;;;;5012087;28;20667;-60
2022/01/13 01:18:07;;;;;;;80.33;29.47;;;;;;;;;;5011479;28;20262;-60
2022/01/13 01:20:49;;;;;;;71.43;28.30;;;;;;;;;;5011936;28;20570;-60
2022/01/13 01:23:19;;;;;;;78.63;30.07;;;;;;;;;;5036082;28;20259;-60
2022/01/13 01:26:03;;;;;;;81.30;29.13;;;;;;;;;;5050901;28;20204;-59
2022/01/13 01:28:39;;;;;;;88.43;31.83;;;;;;;;;;5043949;28;20214;-60
2022/01/13 01:31:04;;;;;;;93.47;30.50;;;;;;;;;;5050579;28;20242;-60
2022/01/13 01:33:30;;;;;;;70.20;29.27;;;;;;;;;;5051773;28;20655;-60
2022/01/13 01:35:56;;;;;;;83.40;30.53;;;;;;;;;;5051808;28;20282;-60
2022/01/13 01:38:22;;;;;;;85.57;30.17;;;;;;;;;;5051193;28;20662;-60
2022/01/13 01:40:47;;;;;;;96.17;30.43;;;;;;;;;;5055780;28;20337;-60
2022/01/13 01:43:12;;;;;;;92.10;31.40;;;;;;;;;;5054817;28;20457;-60
2022/01/13 01:45:44;;;;;;;91.67;31.53;;;;;;;;;;5054566;28;20302;-60
2022/01/13 01:48:10;;;;;;;75.13;30.10;;;;;;;;;;5054841;28;20211;-60
2022/01/13 01:50:37;;;;;;;87.40;31.43;;;;;;;;;;5055473;28;20226;-60
2022/01/13 01:53:03;;;;;;;86.80;30.80;;;;;;;;;;5054003;28;20357;-60
2022/01/13 01:55:28;;;;;;;102.03;32.10;;;;;;;;;;5055321;28;20352;-59
2022/01/13 01:57:53;;;;;;;86.30;31.60;;;;;;;;;;5055107;28;20569;-60
2022/01/13 02:00:19;;;;;;;93.10;32.17;;;;;;;;;;5032347;28;20290;-60
2022/01/13 02:02:44;;;;;;;77.20;29.30;;;;;;;;;;5017341;28;20330;-59
2022/01/13 02:05:10;;;;;;;73.80;30.07;;;;;;;;;;5034878;28;20218;-60
2022/01/13 02:07:35;;;;;;;79.60;29.30;;;;;;;;;;5034063;28;20219;-60
2022/01/13 02:10:01;;;;;;;88.73;30.07;;;;;;;;;;5034638;28;20708;-60
2022/01/13 02:12:44;;;;;;;83.40;28.67;;;;;;;;;;5034960;28;20686;-60
2022/01/13 02:17:41;;;;;;;77.40;27.70;;;;;;;;;;5034521;28;20204;-60
2022/01/13 02:20:08;;;;;;;72.30;27.77;;;;;;;;;;5034390;28;20687;-59
2022/01/13 02:22:33;;;;;;;72.70;27.20;;;;;;;;;;5003794;28;20224;-60
2022/01/13 02:24:59;;;;;;;72.00;27.73;;;;;;;;;;4997765;28;20554;-60
2022/01/13 02:27:24;;;;;;;63.97;26.03;;;;;;;;;;5013481;28;20204;-60
2022/01/13 02:29:49;;;;;;;71.57;26.13;;;;;;;;;;5014893;28;20758;-60
2022/01/13 02:32:14;;;;;;;64.90;26.27;;;;;;;;;;5014204;28;20219;-59
2022/01/13 02:34:40;;;;;;;67.87;26.33;;;;;;;;;;5014423;28;20227;-60
2022/01/13 02:37:05;;;;;;;68.33;26.40;;;;;;;;;;5024957;28;20320;-60
2022/01/13 02:39:30;;;;;;;93.70;27.90;;;;;;;;;;5014860;28;20211;-60
2022/01/13 02:41:56;;;;;;;73.27;26.90;;;;;;;;;;4996677;28;20204;-60
2022/01/13 02:44:23;;;;;;;71.27;27.13;;;;;;;;;;5013641;28;20204;-60
2022/01/13 02:49:13;;;;;;;70.20;26.03;;;;;;;;;;5012922;28;20671;-60
2022/01/13 02:51:39;;;;;;;77.03;25.93;;;;;;;;;;4997459;28;20219;-60
2022/01/13 02:54:05;;;;;;;98.10;28.27;;;;;;;;;;5013835;28;20569;-60
2022/01/13 02:56:30;;;;;;;64.67;24.57;;;;;;;;;;5013699;28;20242;-60
2022/01/13 02:58:56;;;;;;;71.60;25.90;;;;;;;;;;4996708;28;20631;-60
2022/01/13 03:01:21;;;;;;;76.33;25.80;;;;;;;;;;5036897;28;20324;-60
2022/01/13 03:03:47;;;;;;;79.97;25.30;;;;;;;;;;5053116;28;20207;-60
2022/01/13 03:06:13;;;;;;;75.57;26.13;;;;;;;;;;5053845;28;20203;-60
2022/01/13 03:08:39;;;;;;;79.40;26.37;;;;;;;;;;5053737;28;20297;-60
2022/01/13 03:11:04;;;;;;;63.37;26.07;;;;;;;;;;5052533;28;20298;-60
2022/01/13 03:13:30;;;;;;;63.23;24.87;;;;;;;;;;5053616;28;20204;-60
2022/01/13 03:15:55;;;;;;;77.40;26.13;;;;;;;;;;5051327;28;20207;-60
2022/01/13 03:18:21;;;;;;;74.27;25.47;;;;;;;;;;5013215;28;20284;-60
2022/01/13 03:20:46;;;;;;;91.13;27.07;;;;;;;;;;5013927;28;20212;-60
2022/01/13 03:23:16;;;;;;;74.83;23.97;;;;;;;;;;5008850;28;20261;-60
2022/01/13 03:25:44;;;;;;;68.40;23.83;;;;;;;;;;5033272;28;20231;-60
2022/01/13 03:28:15;;;;;;;106.00;25.70;;;;;;;;;;5032822;28;20215;-60
2022/01/13 03:30:40;;;;;;;59.30;21.83;;;;;;;;;;5032590;28;20216;-60
2022/01/13 03:33:06;;;;;;;55.37;21.53;;;;;;;;;;5032898;28;20714;-60
2022/01/13 03:35:31;;;;;;;65.87;22.37;;;;;;;;;;5033353;28;20208;-60
2022/01/13 03:37:58;;;;;;;91.70;24.20;;;;;;;;;;5032696;28;20222;-60
2022/01/13 03:40:23;;;;;;;66.30;22.93;;;;;;;;;;5032663;28;20258;-60
2022/01/13 03:42:52;;;;;;;66.20;23.13;;;;;;;;;;5033246;28;20254;-60
2022/01/13 03:45:18;;;;;;;82.87;25.10;;;;;;;;;;5031509;28;20240;-60
2022/01/13 03:47:43;;;;;;;71.07;23.40;;;;;;;;;;5033017;28;20208;-60
2022/01/13 03:50:08;;;;;;;75.63;22.73;;;;;;;;;;5032581;28;20270;-60
2022/01/13 03:52:33;;;;;;;60.77;22.43;;;;;;;;;;5032395;28;20212;-60
2022/01/13 03:55:17;;;;;;;62.80;21.87;;;;;;;;;;5033087;28;20326;-60
2022/01/13 03:57:42;;;;;;;78.17;21.77;;;;;;;;;;5052471;28;20215;-60
2022/01/13 04:00:26;;;;;;;60.10;21.20;;;;;;;;;;5048192;28;20211;-60
2022/01/13 04:02:51;;;;;;;67.40;22.10;;;;;;;;;;5027786;28;20223;-60
2022/01/13 04:05:17;;;;;;;64.80;19.30;;;;;;;;;;5032278;28;20215;-60
2022/01/13 04:07:42;;;;;;;78.67;21.47;;;;;;;;;;5014577;28;20204;-60
2022/01/13 04:10:08;;;;;;;60.77;19.60;;;;;;;;;;5032026;28;20239;-60
2022/01/13 04:12:33;;;;;;;65.63;21.13;;;;;;;;;;5015056;28;20560;-60
2022/01/13 04:15:01;;;;;;;81.40;20.73;;;;;;;;;;5032069;28;20266;-60
2022/01/13 04:17:26;;;;;;;83.23;21.23;;;;;;;;;;5014916;28;20258;-60
2022/01/13 04:19:52;;;;;;;77.33;20.87;;;;;;;;;;5031730;28;20211;-60
2022/01/13 04:22:17;;;;;;;87.70;20.30;;;;;;;;;;5012126;28;20223;-60
2022/01/13 04:24:43;;;;;;;81.93;21.03;;;;;;;;;;5008943;28;20219;-60
2022/01/13 04:27:09;;;;;;;53.23;19.13;;;;;;;;;;5013789;28;20294;-60
2022/01/13 04:29:37;;;;;;;54.17;18.93;;;;;;;;;;5032105;28;20619;-60
2022/01/13 04:32:03;;;;;;;67.07;19.13;;;;;;;;;;5032005;28;20204;-60
2022/01/13 04:34:28;;;;;;;49.70;18.00;;;;;;;;;;5013800;28;20215;-60
2022/01/13 04:36:56;;;;;;;49.13;18.57;;;;;;;;;;5032273;28;20276;-60
2022/01/13 04:39:21;;;;;;;49.00;18.57;;;;;;;;;;5014345;28;20299;-60
2022/01/13 04:41:48;;;;;;;69.40;20.13;;;;;;;;;;5014299;28;20302;-60
2022/01/13 04:44:15;;;;;;;64.07;19.87;;;;;;;;;;5032045;28;20350;-60
2022/01/13 04:46:41;;;;;;;55.57;19.97;;;;;;;;;;5032265;28;20337;-60
2022/01/13 04:49:06;;;;;;;69.80;21.47;;;;;;;;;;5030664;28;20287;-60
2022/01/13 04:51:31;;;;;;;56.67;20.03;;;;;;;;;;5014554;28;20220;-60
2022/01/13 04:53:57;;;;;;;48.83;19.40;;;;;;;;;;5032408;28;20211;-60
2022/01/13 04:56:39;;;;;;;68.03;19.93;;;;;;;;;;5030767;28;20283;-60
2022/01/13 04:59:04;;;;;;;65.90;19.87;;;;;;;;;;5031859;28;20275;-60
2022/01/13 05:01:30;;;;;;;98.00;20.77;;;;;;;;;;5031872;28;20674;-60
2022/01/13 05:03:55;;;;;;;80.50;20.57;;;;;;;;;;5031190;28;20211;-60
2022/01/13 05:06:20;;;;;;;49.83;19.03;;;;;;;;;;5031507;28;20313;-60
2022/01/13 05:08:46;;;;;;;63.27;19.23;;;;;;;;;;5032106;28;20218;-59
2022/01/13 05:11:11;;;;;;;63.40;19.47;;;;;;;;;;5030426;28;20235;-60
2022/01/13 05:13:37;;;;;;;51.07;18.40;;;;;;;;;;5035055;28;20259;-60
2022/01/13 05:16:02;;;;;;;63.80;19.73;;;;;;;;;;5013560;28;20656;-60
2022/01/13 05:18:43;;;;;;;89.80;20.60;;;;;;;;;;4998410;28;20299;-59
2022/01/13 05:21:19;;;;;;;56.73;19.83;;;;;;;;;;5015231;28;20763;-60
2022/01/13 05:23:44;;;;;;;75.67;20.53;;;;;;;;;;5033406;28;20230;-59
2022/01/13 05:26:10;;;;;;;56.17;18.83;;;;;;;;;;5035373;28;20208;-60
2022/01/13 05:28:35;;;;;;;78.47;21.30;;;;;;;;;;5004747;28;20902;-61
2022/01/13 05:31:01;;;;;;;56.40;19.20;;;;;;;;;;4996680;28;20316;-61
2022/01/13 05:33:26;;;;;;;73.87;19.63;;;;;;;;;;5015652;28;20204;-60
2022/01/13 05:35:51;;;;;;;71.77;19.50;;;;;;;;;;5015660;28;20209;-60
2022/01/13 05:38:18;;;;;;;56.13;18.47;;;;;;;;;;5014263;28;20208;-60
2022/01/13 05:40:44;;;;;;;52.47;19.43;;;;;;;;;;5015677;28;20236;-60
2022/01/13 05:43:09;;;;;;;52.57;18.90;;;;;;;;;;5023208;28;20232;-60
2022/01/13 05:45:34;;;;;;;47.60;18.73;;;;;;;;;;5046795;28;20260;-59
2022/01/13 05:48:00;;;;;;;55.93;20.13;;;;;;;;;;5055097;28;20214;-61
2022/01/13 05:50:26;;;;;;;62.40;18.97;;;;;;;;;;5054622;28;20714;-60
2022/01/13 05:52:51;;;;;;;56.90;18.37;;;;;;;;;;5054354;28;20237;-60
2022/01/13 05:55:17;;;;;;;54.47;17.27;;;;;;;;;;5037273;28;20218;-60
2022/01/13 05:57:42;;;;;;;65.13;18.00;;;;;;;;;;5054663;28;20210;-60
2022/01/13 06:00:08;;;;;;;61.70;19.17;;;;;;;;;;5051303;28;20569;-60
2022/01/13 06:02:34;;;;;;;84.47;19.37;;;;;;;;;;5034621;28;20215;-60
2022/01/13 06:04:59;;;;;;;50.77;16.30;;;;;;;;;;5034820;28;20284;-60
2022/01/13 06:07:24;;;;;;;54.87;17.60;;;;;;;;;;5033684;28;20208;-60
2022/01/13 06:09:49;;;;;;;65.30;17.97;;;;;;;;;;5017313;28;20227;-60
2022/01/13 06:12:16;;;;;;;45.70;16.90;;;;;;;;;;5034373;28;20570;-60
2022/01/13 06:14:42;;;;;;;61.73;17.83;;;;;;;;;;5016740;28;20207;-60
2022/01/13 06:17:07;;;;;;;69.67;17.60;;;;;;;;;;5034318;28;20740;-60
2022/01/13 06:19:32;;;;;;;51.27;16.67;;;;;;;;;;5033551;28;20203;-60
2022/01/13 06:21:58;;;;;;;42.50;16.73;;;;;;;;;;5034501;28;20224;-60
2022/01/13 06:24:23;;;;;;;40.07;17.53;;;;;;;;;;5033511;28;20322;-60
2022/01/13 06:26:48;;;;;;;56.87;17.27;;;;;;;;;;5033851;28;20203;-60
2022/01/13 06:29:13;;;;;;;45.20;15.83;;;;;;;;;;5033479;28;20570;-60
2022/01/13 06:31:39;;;;;;;45.63;17.03;;;;;;;;;;5034528;28;20232;-60
2022/01/13 06:34:04;;;;;;;41.23;16.27;;;;;;;;;;5033319;28;20239;-60
2022/01/13 06:36:31;;;;;;;56.20;17.20;;;;;;;;;;5034169;28;20639;-60
2022/01/13 06:38:56;;;;;;;45.63;15.93;;;;;;;;;;5017092;28;20582;-60
2022/01/13 06:41:21;;;;;;;42.17;14.87;;;;;;;;;;5033049;28;20208;-60
2022/01/13 06:43:47;;;;;;;56.17;16.30;;;;;;;;;;5033987;28;20223;-60
2022/01/13 06:46:12;;;;;;;45.70;15.60;;;;;;;;;;5033560;28;20309;-60
2022/01/13 06:48:38;;;;;;;67.80;16.53;;;;;;;;;;5033392;28;20224;-60
2022/01/13 06:51:03;;;;;;;42.07;15.43;;;;;;;;;;5033440;28;20220;-60
2022/01/13 06:53:28;;;;;;;41.73;15.80;;;;;;;;;;5033900;28;20216;-60
2022/01/13 06:55:54;;;;;;;54.17;15.70;;;;;;;;;;5033493;28;20208;-60
2022/01/13 06:58:19;;;;;;;48.10;15.83;;;;;;;;;;5033070;28;20294;-60
2022/01/13 07:00:44;;;;;;;36.03;16.03;;;;;;;;;;5022406;28;20199;-60
2022/01/13 07:03:10;;;;;;;36.83;15.47;;;;;;;;;;5052716;28;20265;-60
2022/01/13 07:05:35;;;;;;;42.60;15.70;;;;;;;;;;5053653;28;20237;-60
2022/01/13 07:08:01;;;;;;;52.80;17.80;;;;;;;;;;5053379;28;20206;-60
2022/01/13 07:10:26;;;;;;;41.57;16.13;;;;;;;;;;5035438;28;20700;-60
2022/01/13 07:12:52;;;;;;;59.13;16.00;;;;;;;;;;5053252;28;20221;-60
2022/01/13 07:15:17;;;;;;;36.57;15.47;;;;;;;;;;5053198;28;20579;-61
2022/01/13 07:17:42;;;;;;;65.77;17.80;;;;;;;;;;5035633;28;20204;-61
2022/01/13 07:20:08;;;;;;;52.43;17.27;;;;;;;;;;5015262;28;20270;-61
2022/01/13 07:22:33;;;;;;;37.43;16.40;;;;;;;;;;5023910;28;20214;-61
2022/01/13 07:24:58;;;;;;;43.73;18.13;;;;;;;;;;5052809;28;20207;-60
2022/01/13 07:27:24;;;;;;;36.63;16.03;;;;;;;;;;5052897;28;20554;-60
2022/01/13 07:29:49;;;;;;;34.90;15.37;;;;;;;;;;5052412;28;20227;-60
2022/01/13 07:32:15;;;;;;;43.73;18.03;;;;;;;;;;5052987;28;20686;-60
2022/01/13 07:34:40;;;;;;;48.90;17.50;;;;;;;;;;5053620;28;20222;-60
2022/01/13 07:37:06;;;;;;;49.60;18.30;;;;;;;;;;5051053;28;20334;-61
2022/01/13 07:39:31;;;;;;;52.77;19.07;;;;;;;;;;5052511;28;20663;-61
2022/01/13 07:41:56;;;;;;;49.63;19.73;;;;;;;;;;5052701;28;20569;-60
2022/01/13 07:44:22;;;;;;;41.87;19.57;;;;;;;;;;5051684;28;20285;-61
2022/01/13 07:46:47;;;;;;;34.50;21.83;;;;;;;;;;5035128;28;20219;-61
2022/01/13 07:49:12;;;;;;;39.97;16.77;;;;;;;;;;5052506;28;20261;-60
2022/01/13 07:51:37;;;;;;;46.07;22.83;;;;;;;;;;5052008;28;20226;-60
2022/01/13 07:54:03;;;;;;;55.33;33.30;;;;;;;;;;5052374;28;20215;-61
2022/01/13 07:56:28;;;;;;;52.17;23.60;;;;;;;;;;5035108;28;20589;-60
2022/01/13 07:58:55;;;;;;;39.30;19.50;;;;;;;;;;5033837;28;20230;-60
2022/01/13 08:01:20;;;;;;;36.27;16.97;;;;;;;;;;5022569;28;26849;-61
2022/01/13 08:03:46;;;;;;;35.63;21.50;;;;;;;;;;4998508;28;20226;-60
2022/01/13 08:06:11;;;;;;;48.30;23.43;;;;;;;;;;5031470;28;20303;-60
2022/01/13 08:08:36;;;;;;;50.60;22.83;;;;;;;;;;5032690;28;20208;-61
2022/01/13 08:11:03;;;;;;;38.73;16.97;;;;;;;;;;5014469;28;20224;-61
2022/01/13 08:13:29;;;;;;;42.17;23.40;;;;;;;;;;5031449;28;20564;-61
2022/01/13 08:15:55;;;;;;;38.10;17.70;;;;;;;;;;5032755;28;20208;-61
2022/01/13 08:21:04;;;;;;;41.67;18.33;;;;;;;;;;5031367;28;20218;-61
2022/01/13 08:23:30;;;;;;;37.47;18.97;;;;;;;;;;5014438;28;20208;-60
2022/01/13 08:25:55;;;;;;;37.50;15.93;;;;;;;;;;5014252;28;20208;-61
2022/01/13 08:28:21;;;;;;;43.17;18.13;;;;;;;;;;5031494;28;20269;-61
2022/01/13 08:30:46;;;;;;;32.80;16.50;;;;;;;;;;5033563;28;20227;-60
2022/01/13 08:33:12;;;;;;;45.37;26.40;;;;;;;;;;5041287;28;20678;-61
2022/01/13 08:35:43;;;;;;;47.27;27.07;;;;;;;;;;5046013;28;20210;-61
2022/01/13 08:38:15;;;;;;;39.80;22.40;;;;;;;;;;5034585;28;20221;-60
2022/01/13 08:40:41;;;;;;;34.17;16.30;;;;;;;;;;5051378;28;20681;-61
2022/01/13 08:43:06;;;;;;;49.73;16.17;;;;;;;;;;5050655;28;20310;-61
2022/01/13 08:45:31;;;;;;;43.17;25.33;;;;;;;;;;5042779;28;20280;-60
2022/01/13 08:47:57;;;;;;;52.07;27.63;;;;;;;;;;5051132;28;20634;-60
2022/01/13 08:50:22;;;;;;;36.27;16.77;;;;;;;;;;5052002;28;20237;-61
2022/01/13 08:52:48;;;;;;;45.07;18.43;;;;;;;;;;5050586;28;20663;-60
2022/01/13 08:55:13;;;;;;;39.27;17.73;;;;;;;;;;5031711;28;20215;-61
2022/01/13 08:57:38;;;;;;;43.87;18.87;;;;;;;;;;5030634;28;20222;-62
2022/01/13 09:00:06;;;;;;;36.50;19.07;;;;;;;;;;5031482;28;20211;-60
2022/01/13 09:02:33;;;;;;;50.42;20.75;;;;;;;;;;5030649;28;20413;-60
2022/01/13 09:04:59;;;;;;;36.73;20.47;;;;;;;;;;5030894;28;20277;-61
2022/01/13 09:07:24;;;;;;;41.10;25.23;;;;;;;;;;5031393;28;20211;-60
2022/01/13 09:09:50;;;;;;;44.67;16.03;;;;;;;;;;5031081;28;20247;-61
2022/01/13 09:12:15;;;;;;;45.30;22.87;;;;;;;;;;5031127;28;20703;-61
2022/01/13 09:14:42;;;;;;;40.60;20.20;;;;;;;;;;5041718;28;20207;-61
2022/01/13 09:17:12;;;;;;;34.00;19.03;;;;;;;;;;5038353;28;20214;-61
2022/01/13 09:19:41;;;;;;;34.70;17.33;;;;;;;;;;5031762;28;20297;-61
2022/01/13 09:22:06;;;;;;;35.17;21.67;;;;;;;;;;5034480;28;20288;-61
2022/01/13 09:24:31;;;;;;;44.03;22.20;;;;;;;;;;5050680;28;20303;-61
2022/01/13 09:26:57;;;;;;;32.77;15.30;;;;;;;;;;5051430;28;20636;-61
2022/01/13 09:29:22;;;;;;;54.90;33.47;;;;;;;;;;5050686;28;20207;-61
2022/01/13 09:31:47;;;;;;;37.77;17.37;;;;;;;;;;5051826;28;20223;-61
2022/01/13 09:34:13;;;;;;;38.20;16.27;;;;;;;;;;5037213;28;20579;-61
2022/01/13 09:36:38;;;;;;;39.67;19.27;;;;;;;;;;5031099;28;20581;-61
2022/01/13 09:39:04;;;;;;;50.90;26.33;;;;;;;;;;5029813;28;20227;-61
2022/01/13 09:41:30;;;;;;;38.23;16.00;;;;;;;;;;5031530;28;20240;-60
2022/01/13 09:43:56;;;;;;;36.63;14.83;;;;;;;;;;5030866;28;20215;-63
2022/01/13 09:46:22;;;;;;;34.20;16.80;;;;;;;;;;5030075;28;20228;-61
2022/01/13 09:48:47;;;;;;;32.37;16.00;;;;;;;;;;5031556;28;20266;-60
2022/01/13 09:51:13;;;;;;;35.57;18.10;;;;;;;;;;5012358;28;20224;-61
2022/01/13 09:53:38;;;;;;;38.33;19.67;;;;;;;;;;5014010;28;20219;-61
2022/01/13 09:56:04;;;;;;;35.47;17.93;;;;;;;;;;5030928;28;20319;-61
2022/01/13 09:58:29;;;;;;;26.30;13.43;;;;;;;;;;5030622;28;20208;-62
2022/01/13 10:00:55;;;;;;;31.83;13.50;;;;;;;;;;5032980;28;20219;-60
2022/01/13 10:03:25;;;;;;;26.50;12.70;;;;;;;;;;5034758;28;22555;-61
2022/01/13 10:05:54;;;;;;;32.17;13.23;;;;;;;;;;5034211;28;20219;-62
2022/01/13 10:08:21;;;;;;;32.93;14.13;;;;;;;;;;5033283;28;20222;-61
2022/01/13 10:10:46;;;;;;;25.90;13.87;;;;;;;;;;5033098;28;20224;-61
2022/01/13 10:13:14;;;;;;;25.37;12.53;;;;;;;;;;5033652;28;20215;-60
2022/01/13 10:18:37;;;;;;;29.93;12.90;;;;;;;;;;5054119;28;20230;-61
2022/01/13 10:21:09;;;;;;;30.10;13.37;;;;;;;;;;5052983;28;20226;-62
2022/01/13 10:23:35;;;;;;;32.07;12.87;;;;;;;;;;5038032;28;20204;-61
2022/01/13 10:26:07;;;;;;;28.53;14.37;;;;;;;;;;5033519;28;20350;-61
2022/01/13 10:28:32;;;;;;;25.23;12.90;;;;;;;;;;5025928;28;20675;-61
2022/01/13 10:30:58;;;;;;;31.17;13.50;;;;;;;;;;5034376;28;20230;-62
2022/01/13 10:33:24;;;;;;;24.30;12.27;;;;;;;;;;5032157;28;20270;-62
2022/01/13 10:35:51;;;;;;;32.40;13.90;;;;;;;;;;5034628;28;20212;-61
2022/01/13 10:38:16;;;;;;;27.27;13.67;;;;;;;;;;5033970;28;20303;-61
2022/01/13 10:40:42;;;;;;;25.83;12.57;;;;;;;;;;5032018;28;20299;-61
2022/01/13 10:43:09;;;;;;;28.17;13.00;;;;;;;;;;5033980;28;20235;-60
2022/01/13 10:45:36;;;;;;;29.10;13.13;;;;;;;;;;5034159;28;20231;-60
2022/01/13 10:48:09;;;;;;;34.33;14.97;;;;;;;;;;5033291;28;20208;-61
2022/01/13 10:50:36;;;;;;;29.67;13.77;;;;;;;;;;5034245;28;20702;-61
2022/01/13 10:53:03;;;;;;;27.33;13.07;;;;;;;;;;5033571;28;20568;-62
2022/01/13 10:55:29;;;;;;;25.90;13.30;;;;;;;;;;5032724;28;20208;-62
2022/01/13 10:57:54;;;;;;;28.30;13.57;;;;;;;;;;5016434;28;20212;-61
2022/01/13 11:00:21;;;;;;;37.87;13.33;;;;;;;;;;5033379;28;20686;-63
2022/01/13 11:02:47;;;;;;;28.67;13.57;;;;;;;;;;5033230;28;20211;-62
2022/01/13 11:05:12;;;;;;;33.43;16.07;;;;;;;;;;5033429;28;20281;-60
2022/01/13 11:07:39;;;;;;;28.03;14.70;;;;;;;;;;5033689;28;20556;-61
2022/01/13 11:10:06;;;;;;;25.43;13.23;;;;;;;;;;5032977;28;20224;-61
2022/01/13 11:12:40;;;;;;;25.93;14.33;;;;;;;;;;5033374;28;20304;-61
2022/01/13 11:15:07;;;;;;;27.10;13.63;;;;;;;;;;5014802;28;20239;-61
2022/01/13 11:17:35;;;;;;;32.27;15.47;;;;;;;;;;5046255;28;20211;-61
2022/01/13 11:20:01;;;;;;;27.83;14.60;;;;;;;;;;5052898;28;20264;-61
2022/01/13 11:22:26;;;;;;;26.63;14.80;;;;;;;;;;5028140;28;20219;-61
2022/01/13 11:24:51;;;;;;;34.70;15.43;;;;;;;;;;5015775;28;20306;-61
2022/01/13 11:27:17;;;;;;;34.17;15.37;;;;;;;;;;5033403;28;20218;-61
2022/01/13 11:29:42;;;;;;;31.47;14.80;;;;;;;;;;5052518;28;20253;-61
2022/01/13 11:32:09;;;;;;;27.40;14.00;;;;;;;;;;5052866;28;20816;-61
2022/01/13 11:34:34;;;;;;;28.60;14.73;;;;;;;;;;5053415;28;20207;-61
2022/01/13 11:37:00;;;;;;;29.60;14.77;;;;;;;;;;5034493;28;20214;-61
2022/01/13 11:39:35;;;;;;;36.07;14.30;;;;;;;;;;5034947;28;20261;-61
2022/01/13 11:42:03;;;;;;;28.80;13.47;;;;;;;;;;5052176;28;20218;-61
2022/01/13 11:44:28;;;;;;;27.93;13.83;;;;;;;;;;5034569;28;20222;-61
2022/01/13 11:46:54;;;;;;;33.67;18.53;;;;;;;;;;5035364;28;20215;-62
2022/01/13 11:49:23;;;;;;;29.87;15.90;;;;;;;;;;5019501;28;20252;-60
2022/01/13 11:51:56;;;;;;;33.67;18.20;;;;;;;;;;5031910;28;20232;-60
2022/01/13 11:54:26;;;;;;;30.37;14.53;;;;;;;;;;5032344;28;20212;-61
2022/01/13 11:57:08;;;;;;;34.40;16.40;;;;;;;;;;5032417;28;20675;-60
2022/01/13 11:59:33;;;;;;;36.50;18.63;;;;;;;;;;5014822;28;20298;-61
2022/01/13 12:02:18;;;;;;;40.47;21.37;;;;;;;;;;5032919;28;20303;-60
2022/01/13 12:05:02;;;;;;;30.13;16.07;;;;;;;;;;5011936;28;20219;-62
2022/01/13 12:07:35;;;;;;;36.80;15.23;;;;;;;;;;5012494;28;20244;-61
2022/01/13 12:10:01;;;;;;;28.57;15.97;;;;;;;;;;5012294;28;20304;-62
2022/01/13 12:12:32;;;;;;;30.50;16.57;;;;;;;;;;5012126;28;20283;-61
2022/01/13 12:15:15;;;;;;;33.17;16.23;;;;;;;;;;4995027;28;20200;-61
2022/01/13 12:17:45;;;;;;;31.70;14.90;;;;;;;;;;5010916;28;20223;-60
2022/01/13 12:20:25;;;;;;;31.43;15.53;;;;;;;;;;5013270;28;20208;-60
2022/01/13 12:23:01;;;;;;;34.57;15.40;;;;;;;;;;5021581;28;20235;-61
2022/01/13 12:25:31;;;;;;;37.47;15.00;;;;;;;;;;5010951;28;20688;-61
2022/01/13 12:27:57;;;;;;;34.40;15.87;;;;;;;;;;4995462;28;20276;-61
2022/01/13 12:30:27;;;;;;;34.87;16.17;;;;;;;;;;5012342;28;20742;-61
2022/01/13 12:32:53;;;;;;;30.30;15.70;;;;;;;;;;5012048;28;20220;-61
2022/01/13 12:35:37;;;;;;;37.20;16.40;;;;;;;;;;4994844;28;20593;-61
2022/01/13 12:38:08;;;;;;;37.70;15.87;;;;;;;;;;5012203;28;20212;-61
2022/01/13 12:40:39;;;;;;;33.33;15.63;;;;;;;;;;5011606;28;20219;-61
2022/01/13 12:43:12;;;;;;;31.93;15.43;;;;;;;;;;5012229;28;20291;-61
2022/01/13 12:45:37;;;;;;;32.63;15.90;;;;;;;;;;5012426;28;20228;-61
2022/01/13 12:48:05;;;;;;;37.83;16.70;;;;;;;;;;5011117;28;20208;-61
2022/01/13 12:50:33;;;;;;;38.03;15.77;;;;;;;;;;5012360;28;20224;-61
2022/01/13 12:53:06;;;;;;;32.27;16.10;;;;;;;;;;5012376;28;20208;-61
2022/01/13 12:55:31;;;;;;;34.83;15.77;;;;;;;;;;5011164;28;20204;-61
2022/01/13 12:57:56;;;;;;;35.90;14.97;;;;;;;;;;5012137;28;20201;-61
2022/01/13 13:00:22;;;;;;;29.57;14.37;;;;;;;;;;5011430;28;20559;-61
2022/01/13 13:02:49;;;;;;;33.80;15.17;;;;;;;;;;5012605;28;20215;-61
2022/01/13 13:05:28;;;;;;;31.37;15.43;;;;;;;;;;5011988;28;20223;-61
2022/01/13 13:07:54;;;;;;;32.53;15.13;;;;;;;;;;5011386;28;20686;-61
2022/01/13 13:10:19;;;;;;;28.23;13.27;;;;;;;;;;5011540;28;20224;-61
2022/01/13 13:12:50;;;;;;;31.67;14.57;;;;;;;;;;5012435;28;20223;-61
2022/01/13 13:17:45;;;;;;;31.87;13.87;;;;;;;;;;5014796;28;20208;-61
2022/01/13 13:20:29;;;;;;;31.27;13.70;;;;;;;;;;5015111;28;20203;-61
2022/01/13 13:22:56;;;;;;;34.90;14.80;;;;;;;;;;5005864;28;20242;-61
2022/01/13 13:25:34;;;;;;;30.80;15.17;;;;;;;;;;5013729;28;20223;-61
2022/01/13 13:28:18;;;;;;;32.77;15.30;;;;;;;;;;5014176;28;20211;-61
2022/01/13 13:30:44;;;;;;;32.87;14.97;;;;;;;;;;5030815;28;20223;-61
2022/01/13 13:33:09;;;;;;;35.20;15.67;;;;;;;;;;5013750;28;20575;-61
2022/01/13 13:35:34;;;;;;;31.67;14.23;;;;;;;;;;5016042;28;20541;-61
2022/01/13 13:38:01;;;;;;;31.13;14.83;;;;;;;;;;5035284;28;20250;-61
2022/01/13 13:40:27;;;;;;;28.43;14.17;;;;;;;;;;5017594;28;20758;-61
2022/01/13 13:42:59;;;;;;;29.30;13.43;;;;;;;;;;5034868;28;20295;-61
2022/01/13 13:45:25;;;;;;;42.87;15.63;;;;;;;;;;5034514;28;20228;-61
2022/01/13 13:47:54;;;;;;;30.23;14.40;;;;;;;;;;5035425;28;20200;-61
2022/01/13 13:50:19;;;;;;;34.13;15.70;;;;;;;;;;5016476;28;20224;-61
2022/01/13 13:52:46;;;;;;;31.33;15.60;;;;;;;;;;5017749;28;20207;-61
2022/01/13 13:55:11;;;;;;;29.23;15.60;;;;;;;;;;5034326;28;20295;-61
2022/01/13 13:57:37;;;;;;;30.40;13.93;;;;;;;;;;5034575;28;20295;-61
2022/01/13 14:00:07;;;;;;;39.30;15.60;;;;;;;;;;5016970;28;20234;-61
2022/01/13 14:02:36;;;;;;;36.50;13.80;;;;;;;;;;5017608;28;20251;-61
2022/01/13 14:05:04;;;;;;;31.63;14.90;;;;;;;;;;5016732;28;20674;-61
2022/01/13 14:07:32;;;;;;;31.27;14.43;;;;;;;;;;5000985;28;20211;-61
2022/01/13 14:10:00;;;;;;;29.37;13.90;;;;;;;;;;5035101;28;20682;-61
2022/01/13 14:12:26;;;;;;;35.33;14.30;;;;;;;;;;5015886;28;20228;-61
2022/01/13 14:14:51;;;;;;;34.30;15.50;;;;;;;;;;5035006;28;20216;-61
2022/01/13 14:17:17;;;;;;;28.77;13.73;;;;;;;;;;5026459;28;20219;-61
2022/01/13 14:20:00;;;;;;;29.33;14.77;;;;;;;;;;5032712;28;20623;-61
2022/01/13 14:22:26;;;;;;;27.93;14.33;;;;;;;;;;5029852;28;20296;-61
2022/01/13 14:24:52;;;;;;;32.27;15.10;;;;;;;;;;5016281;28;20678;-61
2022/01/13 14:27:17;;;;;;;32.97;15.77;;;;;;;;;;5016718;28;20295;-61
2022/01/13 14:29:42;;;;;;;35.17;15.90;;;;;;;;;;5034763;28;20238;-61
2022/01/13 14:32:14;;;;;;;32.33;15.43;;;;;;;;;;5014716;28;20714;-62